sensor_id;sensor_type;location;lat;lon;timestamp;temperature;humidity
19868;DHT22;10096;51.112;6.776;2022-10-15T00:00:08;15.40;1.00
19868;DHT22;10096;51.112;6.776;2022-10-15T00:02:35;15.30;99.90
19868;DHT22;10096;51.112;6.776;2022-10-15T00:05:02;15.40;99.90
19868;DHT22;10096;51.112;6.776;2022-10-15T00:07:31;15.30;99.90
19868;DHT22;10096;51.112;6.776;2022-10-15T00:09:58;15.50;99.90
19868;DHT22;10096;51.112;6.776;2022-10-15T00:12:26;15.40;99.90
19868;DHT22;10096;51.112;6.776;2022-10-15T00:14:53;15.30;99.90
19868;DHT22;10096;51.112;6.776;2022-10-15T00:17:20;15.20;99.90
19868;DHT22;10096;51.112;6.776;2022-10-15T00:19:47;15.10;99.90
19868;DHT22;10096;51.112;6.776;2022-10-15T00:22:14;15.20;1.00
19868;DHT22;10096;51.112;6.776;2022-10-15T00:24:43;15.20;51.30
19868;DHT22;10096;51.112;6.776;2022-10-15T00:27:10;15.30;1.70
19868;DHT22;10096;51.112;6.776;2022-10-15T00:29:37;15.30;1.00
19868;DHT22;10096;51.112;6.776;2022-10-15T00:32:04;15.40;1.00
19868;DHT22;10096;51.112;6.776;2022-10-15T00:34:31;15.30;99.90
19868;DHT22;10096;51.112;6.776;2022-10-15T00:36:58;15.30;99.90
19868;DHT22;10096;51.112;6.776;2022-10-15T00:39:25;15.40;99.90
19868;DHT22;10096;51.112;6.776;2022-10-15T00:41:54;15.20;99.90
19868;DHT22;10096;51.112;6.776;2022-10-15T00:44:46;15.30;99.90
19868;DHT22;10096;51.112;6.776;2022-10-15T00:47:16;15.20;99.90
19868;DHT22;10096;51.112;6.776;2022-10-15T00:49:46;15.10;1.00
19868;DHT22;10096;51.112;6.776;2022-10-15T00:52:17;15.20;41.50
19868;DHT22;10096;51.112;6.776;2022-10-15T00:54:47;15.20;1.00
19868;DHT22;10096;51.112;6.776;2022-10-15T00:57:17;15.20;1.00
19868;DHT22;10096;51.112;6.776;2022-10-15T00:59:49;15.20;79.00
19868;DHT22;10096;51.112;6.776;2022-10-15T01:02:18;15.30;99.90
19868;DHT22;10096;51.112;6.776;2022-10-15T01:04:46;15.30;99.90
19868;DHT22;10096;51.112;6.776;2022-10-15T01:07:13;15.20;99.90
19868;DHT22;10096;51.112;6.776;2022-10-15T01:09:41;15.30;1.00
19868;DHT22;10096;51.112;6.776;2022-10-15T01:12:13;15.20;1.00
19868;DHT22;10096;51.112;6.776;2022-10-15T01:14:50;15.20;48.40
19868;DHT22;10096;51.112;6.776;2022-10-15T01:17:24;15.20;1.00
19868;DHT22;10096;51.112;6.776;2022-10-15T01:23:13;15.10;99.90
19868;DHT22;10096;51.112;6.776;2022-10-15T01:25:54;15.10;99.90
19868;DHT22;10096;51.112;6.776;2022-10-15T01:28:40;15.20;1.00
19868;DHT22;10096;51.112;6.776;2022-10-15T01:31:17;15.30;1.00
19868;DHT22;10096;51.112;6.776;2022-10-15T01:33:51;15.10;1.00
19868;DHT22;10096;51.112;6.776;2022-10-15T01:36:29;14.90;1.00
19868;DHT22;10096;51.112;6.776;2022-10-15T01:38:59;14.90;1.00
19868;DHT22;10096;51.112;6.776;2022-10-15T01:41:29;15.10;99.90
19868;DHT22;10096;51.112;6.776;2022-10-15T01:44:05;14.90;99.90
19868;DHT22;10096;51.112;6.776;2022-10-15T01:46:39;15.00;99.90
19868;DHT22;10096;51.112;6.776;2022-10-15T01:49:09;15.00;99.90
19868;DHT22;10096;51.112;6.776;2022-10-15T01:51:39;15.10;1.00
19868;DHT22;10096;51.112;6.776;2022-10-15T01:54:12;15.10;1.00
19868;DHT22;10096;51.112;6.776;2022-10-15T01:56:41;15.20;1.00
19868;DHT22;10096;51.112;6.776;2022-10-15T01:59:14;15.20;1.00
19868;DHT22;10096;51.112;6.776;2022-10-15T02:01:44;15.20;99.90
19868;DHT22;10096;51.112;6.776;2022-10-15T02:04:18;15.40;99.90
19868;DHT22;10096;51.112;6.776;2022-10-15T02:06:49;15.20;99.90
19868;DHT22;10096;51.112;6.776;2022-10-15T02:09:27;15.00;99.90
19868;DHT22;10096;51.112;6.776;2022-10-15T02:12:03;15.00;99.90
19868;DHT22;10096;51.112;6.776;2022-10-15T02:14:39;14.90;1.00
19868;DHT22;10096;51.112;6.776;2022-10-15T02:17:10;15.00;1.00
19868;DHT22;10096;51.112;6.776;2022-10-15T02:19:42;15.00;1.00
19868;DHT22;10096;51.112;6.776;2022-10-15T02:22:13;15.00;1.00
19868;DHT22;10096;51.112;6.776;2022-10-15T02:24:48;14.90;99.90
19868;DHT22;10096;51.112;6.776;2022-10-15T02:27:15;15.00;1.00
19868;DHT22;10096;51.112;6.776;2022-10-15T02:29:45;14.90;1.00
19868;DHT22;10096;51.112;6.776;2022-10-15T02:32:14;14.90;1.00
19868;DHT22;10096;51.112;6.776;2022-10-15T02:34:43;14.90;1.00
19868;DHT22;10096;51.112;6.776;2022-10-15T02:37:12;15.00;18.70
19868;DHT22;10096;51.112;6.776;2022-10-15T02:39:39;15.10;1.00
19868;DHT22;10096;51.112;6.776;2022-10-15T02:42:06;15.10;99.90
19868;DHT22;10096;51.112;6.776;2022-10-15T02:44:33;15.20;99.90
19868;DHT22;10096;51.112;6.776;2022-10-15T02:47:01;15.20;99.90
19868;DHT22;10096;51.112;6.776;2022-10-15T02:49:29;15.10;99.90
19868;DHT22;10096;51.112;6.776;2022-10-15T02:51:56;15.00;1.00
19868;DHT22;10096;51.112;6.776;2022-10-15T02:54:23;15.00;99.90
19868;DHT22;10096;51.112;6.776;2022-10-15T02:56:50;15.10;99.90
19868;DHT22;10096;51.112;6.776;2022-10-15T02:59:17;15.30;1.00
19868;DHT22;10096;51.112;6.776;2022-10-15T03:01:44;15.20;1.00
19868;DHT22;10096;51.112;6.776;2022-10-15T03:04:11;15.20;1.00
19868;DHT22;10096;51.112;6.776;2022-10-15T03:06:42;15.20;1.00
19868;DHT22;10096;51.112;6.776;2022-10-15T03:09:09;15.20;99.90
19868;DHT22;10096;51.112;6.776;2022-10-15T03:11:37;15.20;1.00
19868;DHT22;10096;51.112;6.776;2022-10-15T03:14:04;15.20;1.00
19868;DHT22;10096;51.112;6.776;2022-10-15T03:16:31;15.30;99.90
19868;DHT22;10096;51.112;6.776;2022-10-15T03:18:58;15.30;99.90
19868;DHT22;10096;51.112;6.776;2022-10-15T03:21:26;15.30;1.00
19868;DHT22;10096;51.112;6.776;2022-10-15T03:23:57;15.30;1.00
19868;DHT22;10096;51.112;6.776;2022-10-15T03:26:24;15.20;1.00
19868;DHT22;10096;51.112;6.776;2022-10-15T03:28:51;15.10;1.00
19868;DHT22;10096;51.112;6.776;2022-10-15T03:31:18;15.20;1.00
19868;DHT22;10096;51.112;6.776;2022-10-15T03:33:45;15.00;1.00
19868;DHT22;10096;51.112;6.776;2022-10-15T03:36:12;15.00;99.90
19868;DHT22;10096;51.112;6.776;2022-10-15T03:38:39;15.00;99.90
19868;DHT22;10096;51.112;6.776;2022-10-15T03:41:07;14.90;99.90
19868;DHT22;10096;51.112;6.776;2022-10-15T03:43:34;14.90;99.90
19868;DHT22;10096;51.112;6.776;2022-10-15T03:46:02;15.10;1.00
19868;DHT22;10096;51.112;6.776;2022-10-15T03:48:29;15.00;99.90
19868;DHT22;10096;51.112;6.776;2022-10-15T03:50:56;15.20;99.90
19868;DHT22;10096;51.112;6.776;2022-10-15T03:53:23;15.00;99.90
19868;DHT22;10096;51.112;6.776;2022-10-15T03:55:50;15.20;1.00
19868;DHT22;10096;51.112;6.776;2022-10-15T03:58:19;15.00;1.00
19868;DHT22;10096;51.112;6.776;2022-10-15T04:00:46;15.10;1.00
19868;DHT22;10096;51.112;6.776;2022-10-15T04:03:13;15.20;99.90
19868;DHT22;10096;51.112;6.776;2022-10-15T04:05:40;15.10;99.90
19868;DHT22;10096;51.112;6.776;2022-10-15T04:08:07;15.20;99.90
19868;DHT22;10096;51.112;6.776;2022-10-15T04:10:34;15.00;1.00
19868;DHT22;10096;51.112;6.776;2022-10-15T04:13:01;15.10;1.00
19868;DHT22;10096;51.112;6.776;2022-10-15T04:15:29;15.10;1.00
19868;DHT22;10096;51.112;6.776;2022-10-15T04:17:56;15.00;1.00
19868;DHT22;10096;51.112;6.776;2022-10-15T04:20:23;14.90;1.00
19868;DHT22;10096;51.112;6.776;2022-10-15T04:22:50;15.00;99.90
19868;DHT22;10096;51.112;6.776;2022-10-15T04:25:17;15.00;99.90
19868;DHT22;10096;51.112;6.776;2022-10-15T04:27:44;14.90;1.00
19868;DHT22;10096;51.112;6.776;2022-10-15T04:30:12;14.90;1.00
19868;DHT22;10096;51.112;6.776;2022-10-15T04:32:40;14.90;99.90
19868;DHT22;10096;51.112;6.776;2022-10-15T04:35:08;15.10;1.00
19868;DHT22;10096;51.112;6.776;2022-10-15T04:37:35;14.90;1.00
19868;DHT22;10096;51.112;6.776;2022-10-15T04:40:03;14.90;1.00
19868;DHT22;10096;51.112;6.776;2022-10-15T04:42:31;14.90;1.00
19868;DHT22;10096;51.112;6.776;2022-10-15T04:44:58;14.90;99.90
19868;DHT22;10096;51.112;6.776;2022-10-15T04:47:25;15.00;1.00
19868;DHT22;10096;51.112;6.776;2022-10-15T04:49:53;15.00;1.00
19868;DHT22;10096;51.112;6.776;2022-10-15T04:52:20;15.10;99.90
19868;DHT22;10096;51.112;6.776;2022-10-15T04:54:48;15.00;92.60
19868;DHT22;10096;51.112;6.776;2022-10-15T04:57:15;15.20;1.00
19868;DHT22;10096;51.112;6.776;2022-10-15T04:59:42;15.10;15.80
19868;DHT22;10096;51.112;6.776;2022-10-15T05:02:09;15.20;1.00
19868;DHT22;10096;51.112;6.776;2022-10-15T05:04:36;14.90;1.00
19868;DHT22;10096;51.112;6.776;2022-10-15T05:07:05;15.00;1.00
19868;DHT22;10096;51.112;6.776;2022-10-15T05:09:32;14.70;99.90
19868;DHT22;10096;51.112;6.776;2022-10-15T05:11:59;14.70;99.90
19868;DHT22;10096;51.112;6.776;2022-10-15T05:14:26;14.90;99.90
19868;DHT22;10096;51.112;6.776;2022-10-15T05:16:54;14.80;1.00
19868;DHT22;10096;51.112;6.776;2022-10-15T05:19:21;14.90;1.00
19868;DHT22;10096;51.112;6.776;2022-10-15T05:21:48;14.70;1.00
19868;DHT22;10096;51.112;6.776;2022-10-15T05:24:16;14.70;1.00
19868;DHT22;10096;51.112;6.776;2022-10-15T05:26:43;14.70;1.00
19868;DHT22;10096;51.112;6.776;2022-10-15T05:29:10;15.00;1.00
19868;DHT22;10096;51.112;6.776;2022-10-15T05:31:37;15.00;1.00
19868;DHT22;10096;51.112;6.776;2022-10-15T05:34:07;14.90;1.00
19868;DHT22;10096;51.112;6.776;2022-10-15T05:36:34;14.90;1.00
19868;DHT22;10096;51.112;6.776;2022-10-15T05:39:03;14.90;1.00
19868;DHT22;10096;51.112;6.776;2022-10-15T05:41:33;14.80;99.90
19868;DHT22;10096;51.112;6.776;2022-10-15T05:44:00;14.90;1.00
19868;DHT22;10096;51.112;6.776;2022-10-15T05:46:27;14.70;1.00
19868;DHT22;10096;51.112;6.776;2022-10-15T05:48:55;14.70;1.00
19868;DHT22;10096;51.112;6.776;2022-10-15T05:51:23;14.70;25.20
19868;DHT22;10096;51.112;6.776;2022-10-15T05:53:51;14.70;1.00
19868;DHT22;10096;51.112;6.776;2022-10-15T05:56:18;14.80;99.90
19868;DHT22;10096;51.112;6.776;2022-10-15T05:58:46;14.80;1.00
19868;DHT22;10096;51.112;6.776;2022-10-15T06:01:14;14.70;1.00
19868;DHT22;10096;51.112;6.776;2022-10-15T06:03:44;14.90;1.00
19868;DHT22;10096;51.112;6.776;2022-10-15T06:06:15;14.60;99.90
19868;DHT22;10096;51.112;6.776;2022-10-15T06:08:42;14.70;99.90
19868;DHT22;10096;51.112;6.776;2022-10-15T06:11:10;14.40;99.90
19868;DHT22;10096;51.112;6.776;2022-10-15T06:13:38;14.30;99.90
19868;DHT22;10096;51.112;6.776;2022-10-15T06:16:08;14.20;1.00
19868;DHT22;10096;51.112;6.776;2022-10-15T06:18:35;14.10;1.00
19868;DHT22;10096;51.112;6.776;2022-10-15T06:21:03;14.00;1.00
19868;DHT22;10096;51.112;6.776;2022-10-15T06:23:30;13.90;1.00
19868;DHT22;10096;51.112;6.776;2022-10-15T06:26:00;13.90;99.90
19868;DHT22;10096;51.112;6.776;2022-10-15T06:28:29;13.90;1.00
19868;DHT22;10096;51.112;6.776;2022-10-15T06:30:57;14.00;1.00
19868;DHT22;10096;51.112;6.776;2022-10-15T06:33:26;14.10;1.00
19868;DHT22;10096;51.112;6.776;2022-10-15T06:35:54;14.20;99.90
19868;DHT22;10096;51.112;6.776;2022-10-15T06:38:21;14.20;99.90
19868;DHT22;10096;51.112;6.776;2022-10-15T06:40:49;14.30;99.90
19868;DHT22;10096;51.112;6.776;2022-10-15T06:43:16;14.60;99.90
19868;DHT22;10096;51.112;6.776;2022-10-15T06:45:43;14.50;1.00
19868;DHT22;10096;51.112;6.776;2022-10-15T06:48:10;14.60;1.00
19868;DHT22;10096;51.112;6.776;2022-10-15T06:50:39;14.70;1.00
19868;DHT22;10096;51.112;6.776;2022-10-15T06:53:07;15.40;1.00
19868;DHT22;10096;51.112;6.776;2022-10-15T06:55:34;15.90;1.00
19868;DHT22;10096;51.112;6.776;2022-10-15T06:58:04;16.30;99.90
19868;DHT22;10096;51.112;6.776;2022-10-15T07:00:31;16.50;99.90
19868;DHT22;10096;51.112;6.776;2022-10-15T07:03:02;16.40;99.90
19868;DHT22;10096;51.112;6.776;2022-10-15T07:05:29;16.20;1.00
19868;DHT22;10096;51.112;6.776;2022-10-15T07:07:58;15.90;99.90
19868;DHT22;10096;51.112;6.776;2022-10-15T07:10:26;16.10;99.90
19868;DHT22;10096;51.112;6.776;2022-10-15T07:12:54;16.10;44.90
19868;DHT22;10096;51.112;6.776;2022-10-15T07:15:21;16.10;1.00
19868;DHT22;10096;51.112;6.776;2022-10-15T07:17:48;16.00;1.00
19868;DHT22;10096;51.112;6.776;2022-10-15T07:20:17;16.00;1.00
19868;DHT22;10096;51.112;6.776;2022-10-15T07:22:44;15.70;99.90
19868;DHT22;10096;51.112;6.776;2022-10-15T07:25:13;15.70;99.90
19868;DHT22;10096;51.112;6.776;2022-10-15T07:27:40;15.70;1.00
19868;DHT22;10096;51.112;6.776;2022-10-15T07:30:08;15.70;99.90
19868;DHT22;10096;51.112;6.776;2022-10-15T07:32:38;15.80;99.90
19868;DHT22;10096;51.112;6.776;2022-10-15T07:35:06;15.80;1.00
19868;DHT22;10096;51.112;6.776;2022-10-15T07:37:33;15.70;1.00
19868;DHT22;10096;51.112;6.776;2022-10-15T07:40:00;15.80;99.90
19868;DHT22;10096;51.112;6.776;2022-10-15T07:42:28;16.00;99.90
19868;DHT22;10096;51.112;6.776;2022-10-15T07:44:55;15.80;99.90
19868;DHT22;10096;51.112;6.776;2022-10-15T07:47:22;15.90;1.00
19868;DHT22;10096;51.112;6.776;2022-10-15T07:49:49;15.90;1.00
19868;DHT22;10096;51.112;6.776;2022-10-15T07:52:16;16.20;99.90
19868;DHT22;10096;51.112;6.776;2022-10-15T07:54:43;16.40;81.70
19868;DHT22;10096;51.112;6.776;2022-10-15T07:57:10;16.40;94.40
19868;DHT22;10096;51.112;6.776;2022-10-15T07:59:39;16.50;1.00
19868;DHT22;10096;51.112;6.776;2022-10-15T08:02:09;16.50;1.00
19868;DHT22;10096;51.112;6.776;2022-10-15T08:04:36;16.40;1.00
19868;DHT22;10096;51.112;6.776;2022-10-15T08:07:03;16.40;1.00
19868;DHT22;10096;51.112;6.776;2022-10-15T08:09:30;16.30;1.00
19868;DHT22;10096;51.112;6.776;2022-10-15T08:11:58;16.40;32.40
19868;DHT22;10096;51.112;6.776;2022-10-15T08:14:31;16.30;1.00
19868;DHT22;10096;51.112;6.776;2022-10-15T08:17:00;16.30;1.00
19868;DHT22;10096;51.112;6.776;2022-10-15T08:19:28;16.30;99.90
19868;DHT22;10096;51.112;6.776;2022-10-15T08:21:55;16.30;99.90
19868;DHT22;10096;51.112;6.776;2022-10-15T08:24:22;16.60;1.00
19868;DHT22;10096;51.112;6.776;2022-10-15T08:26:57;16.20;1.00
19868;DHT22;10096;51.112;6.776;2022-10-15T08:29:27;16.30;1.00
19868;DHT22;10096;51.112;6.776;2022-10-15T08:31:54;16.50;1.00
19868;DHT22;10096;51.112;6.776;2022-10-15T08:34:22;16.80;1.00
19868;DHT22;10096;51.112;6.776;2022-10-15T08:36:50;16.90;99.90
19868;DHT22;10096;51.112;6.776;2022-10-15T08:39:17;17.10;99.90
19868;DHT22;10096;51.112;6.776;2022-10-15T08:41:46;17.40;99.90
19868;DHT22;10096;51.112;6.776;2022-10-15T08:44:20;17.40;99.90
19868;DHT22;10096;51.112;6.776;2022-10-15T08:46:51;17.10;99.90
19868;DHT22;10096;51.112;6.776;2022-10-15T08:49:32;17.10;99.90
19868;DHT22;10096;51.112;6.776;2022-10-15T08:52:07;17.20;99.90
19868;DHT22;10096;51.112;6.776;2022-10-15T08:54:39;17.20;99.90
19868;DHT22;10096;51.112;6.776;2022-10-15T08:57:16;17.10;99.90
19868;DHT22;10096;51.112;6.776;2022-10-15T08:59:49;17.00;99.90
19868;DHT22;10096;51.112;6.776;2022-10-15T09:02:22;17.10;99.90
19868;DHT22;10096;51.112;6.776;2022-10-15T09:04:57;17.20;99.90
19868;DHT22;10096;51.112;6.776;2022-10-15T09:07:32;17.30;99.90
19868;DHT22;10096;51.112;6.776;2022-10-15T09:10:10;17.50;99.90
19868;DHT22;10096;51.112;6.776;2022-10-15T09:12:46;17.50;99.90
19868;DHT22;10096;51.112;6.776;2022-10-15T09:15:17;17.40;99.90
19868;DHT22;10096;51.112;6.776;2022-10-15T09:17:47;17.40;99.90
19868;DHT22;10096;51.112;6.776;2022-10-15T09:20:20;17.40;99.90
19868;DHT22;10096;51.112;6.776;2022-10-15T09:22:51;17.40;99.90
19868;DHT22;10096;51.112;6.776;2022-10-15T09:25:20;17.50;99.90
19868;DHT22;10096;51.112;6.776;2022-10-15T09:27:50;17.50;99.90
19868;DHT22;10096;51.112;6.776;2022-10-15T09:30:31;17.50;99.90
19868;DHT22;10096;51.112;6.776;2022-10-15T09:33:04;17.60;99.90
19868;DHT22;10096;51.112;6.776;2022-10-15T09:35:38;17.80;99.90
19868;DHT22;10096;51.112;6.776;2022-10-15T09:38:19;17.80;99.90
19868;DHT22;10096;51.112;6.776;2022-10-15T09:40:55;17.90;99.90
19868;DHT22;10096;51.112;6.776;2022-10-15T09:43:30;18.30;99.90
19868;DHT22;10096;51.112;6.776;2022-10-15T09:46:00;18.20;99.90
19868;DHT22;10096;51.112;6.776;2022-10-15T09:48:31;18.30;97.10
19868;DHT22;10096;51.112;6.776;2022-10-15T09:51:04;18.40;94.30
19868;DHT22;10096;51.112;6.776;2022-10-15T09:53:40;18.40;25.00
19868;DHT22;10096;51.112;6.776;2022-10-15T09:56:14;18.40;34.50
19868;DHT22;10096;51.112;6.776;2022-10-15T09:58:49;18.50;60.10
19868;DHT22;10096;51.112;6.776;2022-10-15T10:01:19;18.50;4.30
19868;DHT22;10096;51.112;6.776;2022-10-15T10:03:51;18.60;9.60
19868;DHT22;10096;51.112;6.776;2022-10-15T10:06:22;18.50;17.10
19868;DHT22;10096;51.112;6.776;2022-10-15T10:08:51;18.40;1.00
19868;DHT22;10096;51.112;6.776;2022-10-15T10:11:21;18.20;50.40
19868;DHT22;10096;51.112;6.776;2022-10-15T10:13:51;18.30;99.90
19868;DHT22;10096;51.112;6.776;2022-10-15T10:16:21;18.00;99.90
19868;DHT22;10096;51.112;6.776;2022-10-15T10:19:10;17.90;99.90
19868;DHT22;10096;51.112;6.776;2022-10-15T10:21:42;18.00;99.90
19868;DHT22;10096;51.112;6.776;2022-10-15T10:24:19;17.90;99.90
19868;DHT22;10096;51.112;6.776;2022-10-15T10:26:48;17.90;1.00
19868;DHT22;10096;51.112;6.776;2022-10-15T10:29:18;18.10;1.00
19868;DHT22;10096;51.112;6.776;2022-10-15T10:31:46;18.30;99.90
19868;DHT22;10096;51.112;6.776;2022-10-15T10:34:19;18.40;99.90
19868;DHT22;10096;51.112;6.776;2022-10-15T10:36:51;18.50;99.90
19868;DHT22;10096;51.112;6.776;2022-10-15T10:39:24;18.60;99.90
19868;DHT22;10096;51.112;6.776;2022-10-15T10:41:54;18.60;99.90
19868;DHT22;10096;51.112;6.776;2022-10-15T10:44:27;18.40;99.90
19868;DHT22;10096;51.112;6.776;2022-10-15T10:47:10;18.30;99.90
19868;DHT22;10096;51.112;6.776;2022-10-15T10:49:39;18.20;99.90
19868;DHT22;10096;51.112;6.776;2022-10-15T10:52:19;18.10;99.90
19868;DHT22;10096;51.112;6.776;2022-10-15T10:54:47;18.10;99.90
19868;DHT22;10096;51.112;6.776;2022-10-15T10:57:18;18.20;99.90
19868;DHT22;10096;51.112;6.776;2022-10-15T10:59:50;18.30;99.90
19868;DHT22;10096;51.112;6.776;2022-10-15T11:02:17;18.30;99.90
19868;DHT22;10096;51.112;6.776;2022-10-15T11:04:45;18.30;1.00
19868;DHT22;10096;51.112;6.776;2022-10-15T11:07:20;18.30;99.90
19868;DHT22;10096;51.112;6.776;2022-10-15T11:09:59;18.20;99.90
19868;DHT22;10096;51.112;6.776;2022-10-15T11:12:52;18.20;99.90
19868;DHT22;10096;51.112;6.776;2022-10-15T11:15:29;18.20;99.90
19868;DHT22;10096;51.112;6.776;2022-10-15T11:18:07;18.20;1.00
19868;DHT22;10096;51.112;6.776;2022-10-15T11:20:48;18.30;1.00
19868;DHT22;10096;51.112;6.776;2022-10-15T11:23:34;18.40;1.00
19868;DHT22;10096;51.112;6.776;2022-10-15T11:29:13;18.40;1.00
19868;DHT22;10096;51.112;6.776;2022-10-15T11:31:49;18.40;1.00
19868;DHT22;10096;51.112;6.776;2022-10-15T11:34:29;18.50;1.00
19868;DHT22;10096;51.112;6.776;2022-10-15T11:37:11;18.60;1.00
19868;DHT22;10096;51.112;6.776;2022-10-15T11:39:53;18.70;1.00
19868;DHT22;10096;51.112;6.776;2022-10-15T11:42:28;18.80;99.90
19868;DHT22;10096;51.112;6.776;2022-10-15T11:45:17;18.90;99.90
19868;DHT22;10096;51.112;6.776;2022-10-15T11:47:54;18.90;99.90
19868;DHT22;10096;51.112;6.776;2022-10-15T11:50:29;18.90;99.90
19868;DHT22;10096;51.112;6.776;2022-10-15T11:53:22;18.90;99.90
19868;DHT22;10096;51.112;6.776;2022-10-15T11:55:58;18.90;99.90
19868;DHT22;10096;51.112;6.776;2022-10-15T11:58:30;18.90;99.90
19868;DHT22;10096;51.112;6.776;2022-10-15T12:01:02;18.90;99.90
19868;DHT22;10096;51.112;6.776;2022-10-15T12:03:35;19.00;99.90
19868;DHT22;10096;51.112;6.776;2022-10-15T12:06:08;19.20;99.90
19868;DHT22;10096;51.112;6.776;2022-10-15T12:08:37;19.30;99.90
19868;DHT22;10096;51.112;6.776;2022-10-15T12:11:15;19.30;99.90
19868;DHT22;10096;51.112;6.776;2022-10-15T12:13:50;19.50;99.90
19868;DHT22;10096;51.112;6.776;2022-10-15T12:16:27;19.60;99.90
19868;DHT22;10096;51.112;6.776;2022-10-15T12:19:02;19.90;99.90
19868;DHT22;10096;51.112;6.776;2022-10-15T12:21:34;20.10;39.80
19868;DHT22;10096;51.112;6.776;2022-10-15T12:24:02;20.20;21.40
19868;DHT22;10096;51.112;6.776;2022-10-15T12:26:33;20.20;1.00
19868;DHT22;10096;51.112;6.776;2022-10-15T12:29:02;20.20;1.00
19868;DHT22;10096;51.112;6.776;2022-10-15T12:31:45;20.30;1.00
19868;DHT22;10096;51.112;6.776;2022-10-15T12:34:35;20.40;1.00
19868;DHT22;10096;51.112;6.776;2022-10-15T12:37:14;20.50;1.00
19868;DHT22;10096;51.112;6.776;2022-10-15T12:39:43;20.70;1.00
19868;DHT22;10096;51.112;6.776;2022-10-15T12:42:25;20.70;1.00
19868;DHT22;10096;51.112;6.776;2022-10-15T12:44:53;20.70;1.00
19868;DHT22;10096;51.112;6.776;2022-10-15T12:47:45;20.60;1.00
19868;DHT22;10096;51.112;6.776;2022-10-15T12:50:17;20.60;1.00
19868;DHT22;10096;51.112;6.776;2022-10-15T12:52:58;20.60;1.00
19868;DHT22;10096;51.112;6.776;2022-10-15T12:55:29;20.60;1.00
19868;DHT22;10096;51.112;6.776;2022-10-15T12:58:00;20.30;1.00
19868;DHT22;10096;51.112;6.776;2022-10-15T13:00:46;20.80;1.00
19868;DHT22;10096;51.112;6.776;2022-10-15T13:06:12;21.00;1.00
19868;DHT22;10096;51.112;6.776;2022-10-15T13:08:43;20.90;1.00
19868;DHT22;10096;51.112;6.776;2022-10-15T13:11:19;21.00;1.00
19868;DHT22;10096;51.112;6.776;2022-10-15T13:13:49;21.00;1.00
19868;DHT22;10096;51.112;6.776;2022-10-15T13:16:16;20.90;1.00
19868;DHT22;10096;51.112;6.776;2022-10-15T13:18:48;21.00;1.00
19868;DHT22;10096;51.112;6.776;2022-10-15T13:21:15;21.10;1.00
19868;DHT22;10096;51.112;6.776;2022-10-15T13:23:47;21.10;1.00
19868;DHT22;10096;51.112;6.776;2022-10-15T13:26:19;21.20;1.00
19868;DHT22;10096;51.112;6.776;2022-10-15T13:28:49;21.30;1.00
19868;DHT22;10096;51.112;6.776;2022-10-15T13:31:21;21.20;1.00
19868;DHT22;10096;51.112;6.776;2022-10-15T13:33:51;21.30;1.00
19868;DHT22;10096;51.112;6.776;2022-10-15T13:36:22;21.10;1.00
19868;DHT22;10096;51.112;6.776;2022-10-15T13:38:55;21.20;1.00
19868;DHT22;10096;51.112;6.776;2022-10-15T13:41:25;21.30;1.00
19868;DHT22;10096;51.112;6.776;2022-10-15T13:43:54;21.30;1.00
19868;DHT22;10096;51.112;6.776;2022-10-15T13:46:24;21.40;1.00
19868;DHT22;10096;51.112;6.776;2022-10-15T13:48:56;21.30;1.00
19868;DHT22;10096;51.112;6.776;2022-10-15T13:51:25;21.30;1.00
19868;DHT22;10096;51.112;6.776;2022-10-15T13:53:55;21.20;1.00
19868;DHT22;10096;51.112;6.776;2022-10-15T13:56:25;21.20;1.00
19868;DHT22;10096;51.112;6.776;2022-10-15T13:58:54;21.30;1.00
19868;DHT22;10096;51.112;6.776;2022-10-15T14:01:23;21.30;1.00
19868;DHT22;10096;51.112;6.776;2022-10-15T14:03:52;21.30;1.00
19868;DHT22;10096;51.112;6.776;2022-10-15T14:06:21;21.40;1.00
19868;DHT22;10096;51.112;6.776;2022-10-15T14:08:50;21.50;1.00
19868;DHT22;10096;51.112;6.776;2022-10-15T14:11:17;21.50;1.00
19868;DHT22;10096;51.112;6.776;2022-10-15T14:13:44;21.50;1.00
19868;DHT22;10096;51.112;6.776;2022-10-15T14:16:18;21.60;1.00
19868;DHT22;10096;51.112;6.776;2022-10-15T14:18:48;21.40;1.00
19868;DHT22;10096;51.112;6.776;2022-10-15T14:21:18;21.40;1.00
19868;DHT22;10096;51.112;6.776;2022-10-15T14:23:46;21.30;1.00
19868;DHT22;10096;51.112;6.776;2022-10-15T14:26:15;21.30;1.00
19868;DHT22;10096;51.112;6.776;2022-10-15T14:28:50;21.20;1.00
19868;DHT22;10096;51.112;6.776;2022-10-15T14:34:29;21.20;1.00
19868;DHT22;10096;51.112;6.776;2022-10-15T14:36:57;20.90;1.00
19868;DHT22;10096;51.112;6.776;2022-10-15T14:39:28;20.80;1.00
19868;DHT22;10096;51.112;6.776;2022-10-15T14:42:00;21.00;1.00
19868;DHT22;10096;51.112;6.776;2022-10-15T14:44:41;20.80;1.00
19868;DHT22;10096;51.112;6.776;2022-10-15T14:47:19;20.80;1.00
19868;DHT22;10096;51.112;6.776;2022-10-15T14:49:49;20.70;1.00
19868;DHT22;10096;51.112;6.776;2022-10-15T14:52:17;20.60;1.00
19868;DHT22;10096;51.112;6.776;2022-10-15T14:55:02;20.60;1.00
19868;DHT22;10096;51.112;6.776;2022-10-15T14:57:34;20.60;1.00
19868;DHT22;10096;51.112;6.776;2022-10-15T15:00:03;20.80;1.00
19868;DHT22;10096;51.112;6.776;2022-10-15T15:02:32;20.50;1.00
19868;DHT22;10096;51.112;6.776;2022-10-15T15:05:15;20.50;1.00
19868;DHT22;10096;51.112;6.776;2022-10-15T15:07:43;20.30;1.00
19868;DHT22;10096;51.112;6.776;2022-10-15T15:10:12;20.20;49.80
19868;DHT22;10096;51.112;6.776;2022-10-15T15:12:47;20.00;99.90
19868;DHT22;10096;51.112;6.776;2022-10-15T15:15:17;19.70;80.50
19868;DHT22;10096;51.112;6.776;2022-10-15T15:17:44;19.50;3.70
19868;DHT22;10096;51.112;6.776;2022-10-15T15:20:14;19.40;23.60
19868;DHT22;10096;51.112;6.776;2022-10-15T15:22:45;19.30;54.80
19868;DHT22;10096;51.112;6.776;2022-10-15T15:25:17;19.20;99.20
19868;DHT22;10096;51.112;6.776;2022-10-15T15:27:44;19.20;99.90
19868;DHT22;10096;51.112;6.776;2022-10-15T15:30:15;19.20;99.90
19868;DHT22;10096;51.112;6.776;2022-10-15T15:32:42;19.10;99.90
19868;DHT22;10096;51.112;6.776;2022-10-15T15:38:05;19.10;99.90
19868;DHT22;10096;51.112;6.776;2022-10-15T15:40:32;18.90;99.90
19868;DHT22;10096;51.112;6.776;2022-10-15T15:42:59;18.90;99.90
19868;DHT22;10096;51.112;6.776;2022-10-15T15:45:28;18.90;99.90
19868;DHT22;10096;51.112;6.776;2022-10-15T15:47:55;18.90;1.00
19868;DHT22;10096;51.112;6.776;2022-10-15T15:50:26;18.80;1.00
19868;DHT22;10096;51.112;6.776;2022-10-15T15:52:53;18.80;1.00
19868;DHT22;10096;51.112;6.776;2022-10-15T15:55:22;18.80;1.00
19868;DHT22;10096;51.112;6.776;2022-10-15T15:57:49;18.80;1.00
19868;DHT22;10096;51.112;6.776;2022-10-15T16:00:17;18.80;1.00
19868;DHT22;10096;51.112;6.776;2022-10-15T16:02:45;18.90;1.00
19868;DHT22;10096;51.112;6.776;2022-10-15T16:05:14;18.80;1.00
19868;DHT22;10096;51.112;6.776;2022-10-15T16:07:42;18.90;1.00
19868;DHT22;10096;51.112;6.776;2022-10-15T16:10:09;19.00;1.00
19868;DHT22;10096;51.112;6.776;2022-10-15T16:12:40;18.80;1.00
19868;DHT22;10096;51.112;6.776;2022-10-15T16:15:09;18.50;1.00